Time;durP1;ratioP1;P1;durP2;ratioP2;P2;SDS_P1;SDS_P2;PMS_P1;PMS_P2;Temp;Humidity;BMP_temperature;BMP_pressure;BME280_temperature;BME280_humidity;BME280_pressure;Samples;Min_cycle;Max_cycle;Signal;HPM_P1;HPM_P2
2022/08/26 00:01:41;;;;;;;6.35;1.85;;;11.30;99.90;;;;;;4834702;29;20046;-90
2022/08/26 00:04:09;;;;;;;6.88;2.08;;;11.30;99.90;;;;;;4839007;29;20026;-91
2022/08/26 00:06:35;;;;;;;4.50;1.90;;;11.20;99.90;;;;;;4834238;29;20034;-90
2022/08/26 00:09:02;;;;;;;5.38;2.15;;;11.20;99.90;;;;;;4836757;29;20030;-92
2022/08/26 00:11:28;;;;;;;5.05;2.22;;;11.10;99.90;;;;;;4836018;29;20026;-90
2022/08/26 00:13:55;;;;;;;4.15;1.80;;;11.20;99.90;;;;;;4841241;29;20018;-90
2022/08/26 00:16:22;;;;;;;8.27;2.85;;;11.10;99.90;;;;;;4847579;29;20040;-90
2022/08/26 00:18:48;;;;;;;11.52;2.17;;;11.10;99.90;;;;;;4841581;29;20026;-90
2022/08/26 00:21:14;;;;;;;4.38;2.45;;;11.10;99.90;;;;;;4839908;29;20509;-92
2022/08/26 00:23:40;;;;;;;6.32;2.55;;;11.10;99.90;;;;;;4845522;29;20440;-90
2022/08/26 00:26:06;;;;;;;5.35;2.03;;;11.10;99.90;;;;;;4847422;29;20029;-90
2022/08/26 00:28:33;;;;;;;6.22;1.98;;;11.10;99.90;;;;;;4836429;29;20030;-91
2022/08/26 00:30:59;;;;;;;11.90;2.10;;;11.00;99.90;;;;;;4844105;29;20025;-89
2022/08/26 00:33:25;;;;;;;5.68;2.00;;;11.00;99.90;;;;;;4842890;29;20022;-91
2022/08/26 00:35:51;;;;;;;4.82;2.10;;;11.00;99.90;;;;;;4840149;29;20149;-90
2022/08/26 00:38:17;;;;;;;3.28;2.30;;;10.90;99.90;;;;;;4858181;29;20037;-89
2022/08/26 00:40:49;;;;;;;5.78;2.20;;;10.80;99.90;;;;;;4866309;29;20029;-90
2022/08/26 00:43:16;;;;;;;4.47;1.90;;;10.80;99.90;;;;;;4851150;29;20038;-90
2022/08/26 00:46:00;;;;;;;12.48;2.15;;;10.80;99.90;;;;;;4866442;29;20021;-91
2022/08/26 00:48:28;;;;;;;6.55;2.17;;;10.70;99.90;;;;;;4849063;29;20089;-89
2022/08/26 00:51:03;;;;;;;5.63;2.08;;;10.70;99.90;;;;;;4841605;29;20050;-89
2022/08/26 00:53:33;;;;;;;8.00;3.78;;;10.70;99.90;;;;;;4863555;29;20021;-91
2022/08/26 00:56:18;;;;;;;14.33;2.60;;;10.60;99.90;;;;;;4842774;29;20038;-90
2022/08/26 00:58:46;;;;;;;4.85;2.00;;;10.60;99.90;;;;;;4844364;29;20037;-91
2022/08/26 01:01:15;;;;;;;3.63;2.08;;;10.60;99.90;;;;;;4838052;29;20049;-92
2022/08/26 01:03:43;;;;;;;6.20;2.22;;;10.60;99.90;;;;;;4838746;29;20397;-91
2022/08/26 01:06:09;;;;;;;5.75;2.15;;;10.60;99.90;;;;;;4854718;29;20026;-90
2022/08/26 01:08:35;;;;;;;4.55;2.00;;;10.50;99.90;;;;;;4835504;29;20021;-90
2022/08/26 01:11:01;;;;;;;5.32;1.77;;;10.50;99.90;;;;;;4839408;29;20158;-90
2022/08/26 01:13:29;;;;;;;5.13;2.05;;;10.50;99.90;;;;;;4836646;29;20100;-91
2022/08/26 01:15:59;;;;;;;6.05;1.95;;;10.50;99.90;;;;;;4837518;29;20026;-92
2022/08/26 01:18:26;;;;;;;6.32;2.13;;;10.50;99.90;;;;;;4838529;29;20022;-91
2022/08/26 01:21:11;;;;;;;3.55;2.10;;;10.40;99.90;;;;;;4835090;29;20021;-91
2022/08/26 01:23:41;;;;;;;8.63;2.25;;;10.40;99.90;;;;;;4851657;29;20037;-92
2022/08/26 01:26:10;;;;;;;6.40;2.60;;;10.40;99.90;;;;;;4835698;29;20025;-89
2022/08/26 01:28:37;;;;;;;5.53;2.33;;;10.30;99.90;;;;;;4835884;29;20037;-90
2022/08/26 01:31:06;;;;;;;6.70;2.20;;;10.30;99.90;;;;;;4837950;29;20461;-90
2022/08/26 01:34:09;;;;;;;7.75;1.98;;;10.20;99.90;;;;;;4834233;29;20540;-90
2022/08/26 01:36:36;;;;;;;5.45;2.00;;;10.10;99.90;;;;;;4847896;29;20133;-91
2022/08/26 01:39:03;;;;;;;5.10;1.95;;;10.00;99.90;;;;;;4835235;29;20029;-91
2022/08/26 01:41:31;;;;;;;10.52;2.78;;;9.90;99.90;;;;;;4835423;29;20034;-92
2022/08/26 01:43:58;;;;;;;7.95;2.08;;;9.90;99.90;;;;;;4836098;29;20033;-91
2022/08/26 01:46:27;;;;;;;3.83;1.70;;;9.90;99.90;;;;;;4836862;29;20061;-91
2022/08/26 01:48:55;;;;;;;4.80;2.28;;;9.80;99.90;;;;;;4835291;29;20034;-91
2022/08/26 01:51:23;;;;;;;4.95;2.25;;;9.80;99.90;;;;;;4835506;29;20022;-89
2022/08/26 01:53:49;;;;;;;3.75;2.10;;;9.80;99.90;;;;;;4850559;29;20121;-91
2022/08/26 01:56:15;;;;;;;3.88;2.05;;;9.80;99.90;;;;;;4836065;29;20129;-90
2022/08/26 01:58:45;;;;;;;8.23;3.03;;;9.80;99.90;;;;;;4836434;29;20089;-91
2022/08/26 02:01:11;;;;;;;5.30;2.33;;;9.70;99.90;;;;;;4827912;29;20090;-92
2022/08/26 02:03:54;;;;;;;3.35;1.88;;;9.60;99.90;;;;;;4808622;29;20141;-91
2022/08/26 02:06:20;;;;;;;9.27;2.30;;;9.60;99.90;;;;;;4823760;29;20159;-90
2022/08/26 02:08:50;;;;;;;7.50;2.33;;;9.50;99.90;;;;;;4808743;29;20109;-91
2022/08/26 02:11:16;;;;;;;5.72;2.08;;;9.50;99.90;;;;;;4808779;29;20057;-91
2022/08/26 02:13:54;;;;;;;7.68;2.42;;;9.40;99.90;;;;;;4842039;29;20059;-91
2022/08/26 02:16:23;;;;;;;5.43;2.08;;;9.40;99.90;;;;;;4826964;29;20034;-92
2022/08/26 02:18:49;;;;;;;6.40;2.00;;;9.40;99.90;;;;;;4812520;29;20027;-91
2022/08/26 02:21:15;;;;;;;8.35;2.63;;;9.30;99.90;;;;;;4812530;29;20038;-90
2022/08/26 02:23:41;;;;;;;7.20;2.50;;;9.30;99.90;;;;;;4827472;29;20030;-90
2022/08/26 02:26:19;;;;;;;9.02;2.13;;;9.30;99.90;;;;;;4813201;29;20038;-90
2022/08/26 02:28:57;;;;;;;4.10;2.35;;;9.30;99.90;;;;;;4819655;29;20030;-89
2022/08/26 02:31:23;;;;;;;7.93;2.33;;;9.30;99.90;;;;;;4820185;29;20030;-92
2022/08/26 02:33:49;;;;;;;7.95;2.63;;;9.30;99.90;;;;;;4811968;29;20033;-91
2022/08/26 02:36:21;;;;;;;3.95;2.00;;;9.30;99.90;;;;;;4811495;29;20030;-90
2022/08/26 02:38:47;;;;;;;7.07;1.67;;;9.40;99.90;;;;;;4811354;29;20082;-90
2022/08/26 02:41:12;;;;;;;4.35;2.10;;;9.40;99.90;;;;;;4811520;29;20448;-91
2022/08/26 02:43:38;;;;;;;4.20;2.05;;;9.50;99.90;;;;;;4826313;29;20029;-91
2022/08/26 02:46:04;;;;;;;6.47;2.50;;;9.60;99.90;;;;;;4811291;29;20053;-90
2022/08/26 02:48:30;;;;;;;4.18;2.30;;;9.70;99.90;;;;;;4811392;29;20031;-90
2022/08/26 02:50:58;;;;;;;2.83;1.85;;;9.70;99.90;;;;;;4811219;29;20019;-89
2022/08/26 02:53:24;;;;;;;4.97;1.85;;;9.80;99.90;;;;;;4811732;29;20057;-91
2022/08/26 02:55:49;;;;;;;7.22;2.60;;;9.80;99.90;;;;;;4811280;29;20034;-90
2022/08/26 02:58:16;;;;;;;7.13;2.30;;;9.90;99.90;;;;;;4841780;29;20030;-90
2022/08/26 03:00:42;;;;;;;8.15;2.17;;;9.90;99.90;;;;;;4811355;29;20110;-91
2022/08/26 03:03:07;;;;;;;8.10;2.67;;;9.90;99.90;;;;;;4818213;29;20030;-92
2022/08/26 03:05:34;;;;;;;4.90;2.40;;;9.90;99.90;;;;;;4817872;29;20459;-91
2022/08/26 03:08:00;;;;;;;7.03;2.72;;;9.90;99.90;;;;;;4819883;29;20436;-92
2022/08/26 03:10:26;;;;;;;6.93;2.60;;;9.80;99.90;;;;;;4815903;29;20390;-88
2022/08/26 03:12:52;;;;;;;5.78;2.35;;;9.90;99.90;;;;;;4818324;29;20034;-91
2022/08/26 03:15:19;;;;;;;7.20;2.72;;;9.80;99.90;;;;;;4817561;29;20033;-91
2022/08/26 03:17:46;;;;;;;8.75;3.50;;;9.80;99.90;;;;;;4819663;29;20046;-91
2022/08/26 03:20:12;;;;;;;4.55;2.30;;;9.90;99.90;;;;;;4820386;29;20031;-90
2022/08/26 03:22:39;;;;;;;5.00;2.60;;;9.90;99.90;;;;;;4818702;29;20031;-90
2022/08/26 03:25:08;;;;;;;5.40;2.38;;;9.90;99.90;;;;;;4817806;29;20022;-91
2022/08/26 03:27:34;;;;;;;5.93;2.10;;;9.80;99.90;;;;;;4818467;29;20065;-91
2022/08/26 03:32:44;;;;;;;3.72;1.75;;;9.60;99.90;;;;;;4820727;29;20083;-90
2022/08/26 03:35:11;;;;;;;3.67;1.70;;;9.50;99.90;;;;;;4812831;29;20030;-90
2022/08/26 03:37:38;;;;;;;7.18;2.25;;;9.50;99.90;;;;;;4825463;29;20039;-90
2022/08/26 03:40:06;;;;;;;5.43;2.00;;;9.40;99.90;;;;;;4820305;29;20049;-90
2022/08/26 03:42:35;;;;;;;9.27;2.03;;;9.40;99.90;;;;;;4812945;29;20042;-89
2022/08/26 03:45:01;;;;;;;4.18;1.92;;;9.40;99.90;;;;;;4813817;29;20022;-89
2022/08/26 03:47:26;;;;;;;4.07;2.10;;;9.40;99.90;;;;;;4821348;29;20049;-91
2022/08/26 03:49:52;;;;;;;3.72;1.85;;;9.40;99.90;;;;;;4823323;29;20111;-90
2022/08/26 03:52:18;;;;;;;4.53;2.10;;;9.40;99.90;;;;;;4830316;29;20041;-90
2022/08/26 03:54:43;;;;;;;6.05;1.98;;;9.40;99.90;;;;;;4816692;29;20478;-91
2022/08/26 03:57:09;;;;;;;5.75;2.08;;;9.40;99.90;;;;;;4818490;29;20065;-92
2022/08/26 03:59:35;;;;;;;11.20;2.50;;;9.40;99.90;;;;;;4819358;29;20430;-90
2022/08/26 04:02:01;;;;;;;6.20;2.20;;;9.40;99.90;;;;;;4837081;29;20064;-90
2022/08/26 04:04:26;;;;;;;6.78;2.47;;;9.40;99.90;;;;;;4853008;29;20030;-91
2022/08/26 04:06:57;;;;;;;4.90;2.20;;;9.30;99.90;;;;;;4846204;29;20035;-92
2022/08/26 04:09:23;;;;;;;4.75;2.00;;;9.30;99.90;;;;;;4846210;29;20034;-91
2022/08/26 04:11:49;;;;;;;4.80;2.67;;;9.30;99.90;;;;;;4846620;29;20034;-91
2022/08/26 04:14:18;;;;;;;4.53;2.58;;;9.20;99.90;;;;;;4846782;29;20077;-90
2022/08/26 04:16:45;;;;;;;6.07;3.05;;;9.20;99.90;;;;;;4846616;29;20060;-89
2022/08/26 04:19:13;;;;;;;7.88;2.53;;;9.20;99.90;;;;;;4846273;29;20026;-91
2022/08/26 04:21:40;;;;;;;6.65;2.60;;;9.30;99.90;;;;;;4845568;29;20124;-91
2022/08/26 04:24:08;;;;;;;7.63;2.67;;;9.30;99.90;;;;;;4845863;29;20032;-92
2022/08/26 04:26:36;;;;;;;8.93;2.63;;;9.40;99.90;;;;;;4863790;29;20030;-92
2022/08/26 04:29:05;;;;;;;9.20;2.88;;;9.40;99.90;;;;;;4847939;29;20478;-90
2022/08/26 04:31:33;;;;;;;5.85;3.20;;;9.40;99.90;;;;;;4846757;29;20128;-91
2022/08/26 04:33:59;;;;;;;10.95;3.55;;;9.40;99.90;;;;;;4846240;29;20367;-90
2022/08/26 04:36:24;;;;;;;4.40;2.70;;;9.50;99.90;;;;;;4849443;29;20049;-91
2022/08/26 04:38:50;;;;;;;8.10;2.95;;;9.50;99.90;;;;;;4852586;29;20026;-91
2022/08/26 04:41:18;;;;;;;7.45;2.53;;;9.50;99.90;;;;;;4858334;29;20564;-90
2022/08/26 04:43:45;;;;;;;6.32;2.78;;;9.50;99.90;;;;;;4851085;29;20504;-92
2022/08/26 04:46:14;;;;;;;9.82;2.63;;;9.50;99.90;;;;;;4845323;29;20033;-90
2022/08/26 04:48:40;;;;;;;6.80;2.55;;;9.50;99.90;;;;;;4845162;29;20025;-89
2022/08/26 04:51:07;;;;;;;5.15;2.78;;;9.50;99.90;;;;;;4844859;29;20032;-93
2022/08/26 04:53:32;;;;;;;9.88;2.85;;;9.50;99.90;;;;;;4845310;29;20521;-90
2022/08/26 04:55:58;;;;;;;5.35;2.40;;;9.50;99.90;;;;;;4844957;29;20025;-91
2022/08/26 04:58:26;;;;;;;6.45;2.60;;;9.50;99.90;;;;;;4861736;29;20569;-90
2022/08/26 05:00:54;;;;;;;5.18;2.08;;;9.50;99.90;;;;;;4844778;29;20033;-89
2022/08/26 05:03:20;;;;;;;10.18;2.70;;;9.50;99.90;;;;;;4845297;29;20045;-88
2022/08/26 05:05:48;;;;;;;6.72;2.15;;;9.50;99.90;;;;;;4845378;29;20109;-91
2022/08/26 05:08:15;;;;;;;4.82;2.22;;;9.50;99.90;;;;;;4846998;29;20033;-90
2022/08/26 05:10:42;;;;;;;5.20;2.38;;;9.50;99.90;;;;;;4845858;29;20025;-92
2022/08/26 05:13:08;;;;;;;4.70;2.22;;;9.50;99.90;;;;;;4844895;29;20036;-89
2022/08/26 05:15:35;;;;;;;10.35;2.83;;;9.60;99.90;;;;;;4850538;29;20101;-90
2022/08/26 05:18:05;;;;;;;6.45;2.38;;;9.60;99.90;;;;;;4850791;29;20030;-90
2022/08/26 05:20:32;;;;;;;9.80;2.63;;;9.60;99.90;;;;;;4851125;29;20029;-90
2022/08/26 05:22:59;;;;;;;11.38;2.83;;;9.60;99.90;;;;;;4857385;29;20029;-88
2022/08/26 05:25:28;;;;;;;6.75;2.63;;;9.70;99.90;;;;;;4860600;29;20032;-89
2022/08/26 05:27:54;;;;;;;9.27;2.85;;;9.60;99.90;;;;;;4867999;29;20060;-89
2022/08/26 05:30:20;;;;;;;5.43;2.90;;;9.70;99.90;;;;;;4860600;29;20025;-90
2022/08/26 05:32:50;;;;;;;6.35;2.60;;;9.70;99.90;;;;;;4850951;29;20152;-88
2022/08/26 05:35:16;;;;;;;7.28;2.75;;;9.70;99.90;;;;;;4848525;29;20062;-91
2022/08/26 05:37:42;;;;;;;4.82;2.42;;;9.80;99.90;;;;;;4848040;29;20065;-89
2022/08/26 05:40:09;;;;;;;6.57;2.65;;;9.80;99.90;;;;;;4846656;29;20457;-89
2022/08/26 05:42:34;;;;;;;6.50;2.50;;;9.90;99.90;;;;;;4846750;29;20137;-91
2022/08/26 05:45:00;;;;;;;7.32;2.53;;;9.80;99.90;;;;;;4846449;29;20546;-90
2022/08/26 05:47:26;;;;;;;6.00;3.08;;;9.90;99.90;;;;;;4844703;29;20033;-90
2022/08/26 05:49:52;;;;;;;8.27;2.53;;;9.90;99.90;;;;;;4845421;29;20093;-91
2022/08/26 05:52:18;;;;;;;5.32;2.85;;;9.90;99.90;;;;;;4845931;29;20589;-91
2022/08/26 05:54:46;;;;;;;7.13;2.58;;;9.90;99.90;;;;;;4862522;29;20070;-89
2022/08/26 05:57:12;;;;;;;7.38;2.53;;;9.90;99.90;;;;;;4845289;29;20033;-90
2022/08/26 05:59:38;;;;;;;6.57;2.83;;;9.90;99.90;;;;;;4845517;29;20111;-89
2022/08/26 06:02:05;;;;;;;7.93;2.42;;;9.90;99.90;;;;;;4845273;29;20527;-88
2022/08/26 06:04:31;;;;;;;6.93;3.35;;;9.90;99.90;;;;;;4845857;29;20048;-89
2022/08/26 06:06:57;;;;;;;5.95;3.05;;;10.00;99.90;;;;;;4845605;29;20029;-89
2022/08/26 06:09:23;;;;;;;8.07;3.65;;;10.00;99.90;;;;;;4845150;29;20642;-89
2022/08/26 06:11:49;;;;;;;7.22;3.50;;;10.00;99.90;;;;;;4845757;29;20026;-90
2022/08/26 06:14:16;;;;;;;8.20;2.72;;;10.00;99.90;;;;;;4845834;29;20128;-89
2022/08/26 06:16:43;;;;;;;9.15;2.88;;;10.10;99.90;;;;;;4845213;29;20041;-91
2022/08/26 06:19:11;;;;;;;9.68;3.13;;;10.10;99.90;;;;;;4845937;29;20381;-91
2022/08/26 06:21:40;;;;;;;4.82;2.80;;;10.10;99.90;;;;;;4845090;29;20037;-92
2022/08/26 06:26:56;;;;;;;7.63;2.15;;;10.10;99.90;;;;;;4862371;29;20036;-89
2022/08/26 06:29:27;;;;;;;11.30;3.67;;;10.10;99.90;;;;;;4845629;29;20086;-91
2022/08/26 06:31:53;;;;;;;;;;;10.10;99.90;;;;;;4847026;29;20120;-91
2022/08/26 06:34:19;;;;;;;6.75;3.08;;;10.00;99.90;;;;;;4857250;29;19988;-92
2022/08/26 06:36:46;;;;;;;8.18;3.03;;;10.10;99.90;;;;;;4857633;29;20046;-90
2022/08/26 06:39:13;;;;;;;5.03;2.92;;;10.10;99.90;;;;;;4852320;29;20358;-91
2022/08/26 06:41:42;;;;;;;5.63;2.53;;;10.10;99.90;;;;;;4853027;29;20030;-90
2022/08/26 06:44:08;;;;;;;5.88;2.95;;;10.20;99.90;;;;;;4846565;29;20112;-90
2022/08/26 06:46:33;;;;;;;7.20;2.92;;;10.20;99.90;;;;;;4845720;29;20061;-91
2022/08/26 06:48:59;;;;;;;8.02;3.45;;;10.20;99.90;;;;;;4853105;29;20074;-90
2022/08/26 06:51:31;;;;;;;7.68;2.75;;;10.20;99.90;;;;;;4841386;29;20106;-93
2022/08/26 06:54:01;;;;;;;11.15;2.85;;;10.30;99.90;;;;;;4835776;29;20021;-90
2022/08/26 06:56:32;;;;;;;12.52;2.92;;;10.30;99.90;;;;;;4835577;29;20059;-91
2022/08/26 06:58:57;;;;;;;8.73;2.90;;;10.30;99.90;;;;;;4834869;29;20034;-89
2022/08/26 07:01:29;;;;;;;11.90;2.75;;;10.40;99.90;;;;;;4830447;29;20136;-92
2022/08/26 07:03:58;;;;;;;7.72;2.75;;;10.50;99.90;;;;;;4853697;29;20117;-90
2022/08/26 07:06:26;;;;;;;8.98;2.78;;;10.60;99.90;;;;;;4836382;29;20026;-90
2022/08/26 07:08:58;;;;;;;5.85;2.22;;;10.80;99.90;;;;;;4838795;29;20514;-92
2022/08/26 07:11:24;;;;;;;4.97;2.40;;;10.90;99.90;;;;;;4836053;29;20482;-92
2022/08/26 07:13:50;;;;;;;7.18;2.33;;;11.10;99.90;;;;;;4839318;29;20145;-91
2022/08/26 07:16:16;;;;;;;10.55;3.50;;;11.20;99.90;;;;;;4856595;29;20165;-91
2022/08/26 07:18:43;;;;;;;7.57;2.95;;;11.40;99.90;;;;;;4838468;29;21203;-91
2022/08/26 07:21:12;;;;;;;9.48;3.53;;;11.60;99.90;;;;;;4848582;29;20029;-91
2022/08/26 07:23:37;;;;;;;6.63;2.67;;;11.70;99.90;;;;;;4835290;29;20021;-90
2022/08/26 07:26:15;;;;;;;5.28;2.45;;;11.80;99.90;;;;;;4847280;29;20036;-90
2022/08/26 07:28:45;;;;;;;9.38;3.28;;;12.00;99.90;;;;;;4835629;29;20036;-89
2022/08/26 07:31:13;;;;;;;13.27;2.85;;;12.10;99.90;;;;;;4839506;29;20474;-90
2022/08/26 07:33:40;;;;;;;9.20;2.90;;;12.30;99.90;;;;;;4838252;29;20529;-92
2022/08/26 07:36:07;;;;;;;12.70;3.10;;;12.40;99.90;;;;;;4838380;29;20517;-90
2022/08/26 07:38:34;;;;;;;6.95;3.13;;;12.50;99.90;;;;;;4843595;29;20030;-91
2022/08/26 07:41:00;;;;;;;14.00;3.20;;;12.60;99.90;;;;;;4829747;29;20033;-91
2022/08/26 07:43:27;;;;;;;8.35;3.10;;;12.70;99.90;;;;;;4831073;29;20041;-92
2022/08/26 07:45:53;;;;;;;7.93;3.00;;;12.80;99.90;;;;;;4838329;29;20062;-92
2022/08/26 07:48:21;;;;;;;8.07;2.90;;;12.90;99.90;;;;;;4835673;29;20049;-91
2022/08/26 07:50:46;;;;;;;8.43;2.80;;;13.00;99.90;;;;;;4851128;29;20037;-90
2022/08/26 07:53:12;;;;;;;10.70;2.63;;;13.00;99.90;;;;;;4854123;29;20037;-91
2022/08/26 07:55:38;;;;;;;6.90;2.88;;;13.20;99.90;;;;;;4839610;29;20025;-90
2022/08/26 07:58:05;;;;;;;9.13;2.88;;;13.30;99.90;;;;;;4828530;29;20383;-91
2022/08/26 08:00:32;;;;;;;10.02;3.25;;;13.40;99.90;;;;;;4868386;29;20089;-91
2022/08/26 08:03:03;;;;;;;15.32;2.80;;;13.50;99.90;;;;;;4798955;29;20058;-92
2022/08/26 08:05:31;;;;;;;8.23;2.40;;;13.70;99.90;;;;;;4829629;29;20022;-92
2022/08/26 08:08:03;;;;;;;7.95;2.33;;;13.80;99.90;;;;;;4816713;29;20045;-92
2022/08/26 08:10:30;;;;;;;11.40;2.10;;;13.90;99.90;;;;;;4814410;29;20054;-92
2022/08/26 08:12:57;;;;;;;10.50;2.70;;;14.00;99.90;;;;;;4813864;29;20038;-90
2022/08/26 08:15:26;;;;;;;11.43;2.13;;;14.10;99.90;;;;;;4823217;29;20070;-92
2022/08/26 08:17:52;;;;;;;10.88;2.45;;;14.20;99.90;;;;;;4815458;29;20226;-89
2022/08/26 08:20:19;;;;;;;7.28;2.40;;;14.40;99.90;;;;;;4818715;29;20022;-91
2022/08/26 08:22:45;;;;;;;11.63;2.85;;;14.50;99.90;;;;;;4819717;29;20025;-91
2022/08/26 08:25:12;;;;;;;8.63;2.80;;;14.60;99.90;;;;;;4819841;29;20074;-89
2022/08/26 08:27:39;;;;;;;8.05;2.47;;;14.70;99.90;;;;;;4818225;29;20022;-90
2022/08/26 08:30:07;;;;;;;10.90;2.40;;;14.80;99.90;;;;;;4827823;29;20057;-93
2022/08/26 08:32:34;;;;;;;5.72;2.10;;;14.90;99.90;;;;;;4819435;29;20040;-92
2022/08/26 08:35:01;;;;;;;6.18;1.70;;;15.00;99.90;;;;;;4816417;29;20513;-91
2022/08/26 08:37:27;;;;;;;12.48;2.40;;;15.10;99.90;;;;;;4815395;29;20046;-92
2022/08/26 08:39:53;;;;;;;13.10;2.53;;;15.10;99.90;;;;;;4807859;29;20058;-94
2022/08/26 08:42:51;;;;;;;9.10;1.63;;;15.20;99.90;;;;;;4819396;29;20058;-91
2022/08/26 08:45:37;;;;;;;6.93;1.48;;;15.30;99.90;;;;;;4820399;29;20054;-93
2022/08/26 08:48:21;;;;;;;9.30;1.40;;;15.50;99.90;;;;;;4817455;29;20034;-92
2022/08/26 08:50:49;;;;;;;6.30;1.88;;;15.60;99.90;;;;;;4808575;29;20034;-93
2022/08/26 08:53:24;;;;;;;5.85;1.30;;;15.70;99.90;;;;;;4836694;29;20034;-93
2022/08/26 08:55:55;;;;;;;4.68;1.23;;;15.80;99.90;;;;;;4814994;29;20038;-89
2022/08/26 08:58:29;;;;;;;11.05;1.33;;;15.90;99.90;;;;;;4827155;29;20492;-90
2022/08/26 09:01:03;;;;;;;6.28;1.50;;;16.00;99.90;;;;;;4836968;29;20034;-94
2022/08/26 09:03:35;;;;;;;8.52;2.35;;;16.20;99.90;;;;;;4828078;29;20414;-94
2022/08/26 09:06:02;;;;;;;7.10;1.50;;;16.30;99.90;;;;;;4835612;29;20383;-93
2022/08/26 09:08:34;;;;;;;6.97;1.48;;;16.50;99.90;;;;;;4826380;29;20026;-95
2022/08/26 09:11:02;;;;;;;4.85;1.30;;;16.60;99.90;;;;;;4836880;29;20037;-94
2022/08/26 09:13:28;;;;;;;4.80;1.45;;;16.80;99.90;;;;;;4824818;29;20026;-94
2022/08/26 09:15:57;;;;;;;7.47;1.30;;;17.00;99.90;;;;;;4840688;29;20040;-93
2022/08/26 09:18:27;;;;;;;4.05;1.35;;;17.10;99.90;;;;;;4854474;29;20034;-92
2022/08/26 09:21:03;;;;;;;5.88;1.30;;;17.30;99.90;;;;;;4844436;29;20030;-93
2022/08/26 09:23:31;;;;;;;4.68;1.02;;;17.50;99.90;;;;;;4830534;29;20017;-93
2022/08/26 09:26:12;;;;;;;6.05;1.10;;;17.70;99.90;;;;;;4861898;29;20030;-93
2022/08/26 09:28:41;;;;;;;5.32;1.05;;;17.90;99.90;;;;;;4860592;29;20026;-93
2022/08/26 09:31:22;;;;;;;3.92;0.98;;;18.20;99.90;;;;;;4833894;29;20379;-94
2022/08/26 09:34:02;;;;;;;3.08;0.75;;;18.40;99.90;;;;;;4849716;29;20542;-94
2022/08/26 09:36:40;;;;;;;3.20;0.80;;;18.50;99.90;;;;;;4836349;29;20124;-92
2022/08/26 09:39:27;;;;;;;3.72;1.05;;;18.80;99.90;;;;;;4840056;29;20025;-94
2022/08/26 09:42:17;;;;;;;4.50;0.77;;;19.00;98.20;;;;;;4833320;29;20034;-91
2022/08/26 09:44:55;;;;;;;;;;;19.20;96.90;;;;;;4835813;29;20022;-93
2022/08/26 09:47:39;;;;;;;4.68;0.70;;;19.40;96.40;;;;;;4847293;29;19908;-91
2022/08/26 09:50:18;;;;;;;3.58;0.90;;;19.60;95.00;;;;;;4835569;29;20061;-92
2022/08/26 09:52:44;;;;;;;1.88;0.73;;;19.70;94.10;;;;;;4836414;29;20030;-94
2022/08/26 09:55:12;;;;;;;4.80;0.90;;;19.90;93.40;;;;;;4839781;29;20037;-92
2022/08/26 09:57:50;;;;;;;5.95;1.08;;;20.00;91.90;;;;;;4834104;29;20041;-90
2022/08/26 10:00:33;;;;;;;4.43;1.00;;;20.10;91.10;;;;;;4832252;29;20103;-91
2022/08/26 10:03:04;;;;;;;3.53;0.80;;;20.20;90.50;;;;;;4830363;29;20136;-91
2022/08/26 10:05:36;;;;;;;5.70;1.25;;;20.30;90.00;;;;;;4827081;29;20022;-91
2022/08/26 10:08:32;;;;;;;5.30;1.10;;;20.50;88.60;;;;;;4827795;29;20086;-92
2022/08/26 10:11:01;;;;;;;2.97;0.77;;;20.60;86.80;;;;;;4849182;29;20115;-91
2022/08/26 10:13:41;;;;;;;5.90;1.63;;;20.90;86.40;;;;;;4830827;29;20034;-90
2022/08/26 10:16:16;;;;;;;;;;;21.10;84.60;;;;;;4837721;29;20042;-92
2022/08/26 10:19:03;;;;;;;2.95;0.98;;;21.20;84.10;;;;;;4823548;29;19933;-92
2022/08/26 10:21:35;;;;;;;4.97;0.82;;;21.30;83.10;;;;;;4872256;29;20042;-91
2022/08/26 10:24:02;;;;;;;5.75;1.17;;;21.50;81.50;;;;;;4852488;29;20010;-92
2022/08/26 10:26:48;;;;;;;3.80;1.20;;;21.60;80.40;;;;;;4852968;29;20051;-91
2022/08/26 10:29:18;;;;;;;1.85;1.20;;;21.80;79.40;;;;;;4859615;29;20099;-92
2022/08/26 10:32:29;;;;;;;2.92;0.95;;;21.90;78.50;;;;;;4843987;29;20046;-91
2022/08/26 10:34:55;;;;;;;2.92;1.00;;;22.00;77.30;;;;;;4827545;29;20038;-91
2022/08/26 10:37:31;;;;;;;3.22;0.98;;;22.20;77.00;;;;;;4844145;29;20045;-91
2022/08/26 10:40:02;;;;;;;3.53;0.90;;;22.30;76.30;;;;;;4834929;29;20026;-91
2022/08/26 10:42:54;;;;;;;;;;;22.40;75.50;;;;;;4837398;29;20097;-89
2022/08/26 10:45:24;;;;;;;5.07;1.25;;;22.40;75.00;;;;;;4835520;29;19912;-89
2022/08/26 10:48:04;;;;;;;4.07;0.90;;;22.40;74.70;;;;;;4836903;29;20030;-91
2022/08/26 10:50:34;;;;;;;7.18;1.00;;;22.50;74.50;;;;;;4836588;29;20030;-90
2022/08/26 10:53:15;;;;;;;3.15;0.80;;;22.50;73.70;;;;;;4836460;29;20026;-93
2022/08/26 10:55:57;;;;;;;6.18;0.88;;;22.50;72.70;;;;;;4836442;29;20062;-93
2022/08/26 10:58:41;;;;;;;6.57;0.85;;;22.40;72.60;;;;;;4839273;29;20045;-93
2022/08/26 11:04:12;;;;;;;6.75;1.15;;;22.40;72.30;;;;;;4852266;29;20107;-92
2022/08/26 11:06:39;;;;;;;4.07;1.10;;;22.60;71.70;;;;;;4827045;29;20029;-91
2022/08/26 11:09:07;;;;;;;3.35;1.05;;;22.70;71.10;;;;;;4849358;29;20195;-92
2022/08/26 11:11:39;;;;;;;10.20;1.80;;;22.90;70.00;;;;;;4842764;29;20478;-92
2022/08/26 11:14:18;;;;;;;6.68;1.42;;;23.10;69.60;;;;;;4844980;29;20026;-92
2022/08/26 11:16:53;;;;;;;5.57;1.02;;;23.30;68.30;;;;;;4840775;29;20042;-91
2022/08/26 11:19:38;;;;;;;7.15;1.60;;;23.50;67.90;;;;;;4833566;29;20034;-90
2022/08/26 11:22:10;;;;;;;5.13;1.00;;;23.70;67.00;;;;;;4839850;29;20500;-91
2022/08/26 11:24:46;;;;;;;8.68;1.10;;;23.70;66.40;;;;;;4830303;29;20053;-92
2022/08/26 11:27:34;;;;;;;7.22;1.60;;;23.80;66.20;;;;;;4823578;29;20065;-92
2022/08/26 11:30:12;;;;;;;6.78;0.88;;;24.00;66.20;;;;;;4841780;29;20034;-92
2022/08/26 11:32:40;;;;;;;6.40;1.10;;;24.00;64.90;;;;;;4843591;29;20038;-92
2022/08/26 11:35:06;;;;;;;5.53;1.00;;;24.10;65.00;;;;;;4830207;29;20052;-91
2022/08/26 11:37:38;;;;;;;5.15;0.98;;;24.40;64.70;;;;;;4839628;29;20472;-92
2022/08/26 11:40:19;;;;;;;2.50;0.90;;;24.50;63.70;;;;;;4827266;29;20141;-90
2022/08/26 11:42:59;;;;;;;6.50;0.80;;;24.70;63.40;;;;;;4832183;29;20099;-92
2022/08/26 11:45:38;;;;;;;2.85;0.85;;;25.10;62.90;;;;;;4831684;29;20447;-91
2022/08/26 11:48:31;;;;;;;3.05;1.20;;;25.10;62.20;;;;;;4821203;29;20031;-91
2022/08/26 11:51:03;;;;;;;3.30;0.95;;;25.00;61.20;;;;;;4822531;29;20033;-92
2022/08/26 11:53:31;;;;;;;5.60;0.90;;;25.00;61.40;;;;;;4827498;29;20086;-92
2022/08/26 11:56:00;;;;;;;5.32;1.27;;;25.10;61.30;;;;;;4826508;29;20026;-91
2022/08/26 11:58:27;;;;;;;3.58;1.00;;;25.20;61.10;;;;;;4826812;29;20034;-89
2022/08/26 12:00:56;;;;;;;3.25;1.02;;;25.10;60.80;;;;;;4843924;29;20034;-91
2022/08/26 12:03:36;;;;;;;6.60;1.05;;;24.90;60.80;;;;;;4824895;29;20521;-91
2022/08/26 12:06:10;;;;;;;3.83;1.15;;;25.00;60.90;;;;;;4826259;29;20462;-92
2022/08/26 12:08:42;;;;;;;3.45;0.90;;;25.10;60.80;;;;;;4829040;29;20038;-91
2022/08/26 12:11:18;;;;;;;3.95;1.10;;;25.40;60.40;;;;;;4833179;29;20030;-90
2022/08/26 12:13:54;;;;;;;4.97;1.40;;;25.60;59.80;;;;;;4830309;29;20021;-91
2022/08/26 12:16:30;;;;;;;3.65;1.05;;;25.60;59.50;;;;;;4841174;29;20045;-91
2022/08/26 12:18:56;;;;;;;4.28;1.00;;;25.60;59.30;;;;;;4842224;29;20089;-90
2022/08/26 12:21:28;;;;;;;3.78;1.20;;;25.40;59.40;;;;;;4828250;29;20034;-90
2022/08/26 12:23:58;;;;;;;3.88;0.93;;;25.40;60.00;;;;;;4827788;29;20037;-90
2022/08/26 12:26:28;;;;;;;4.00;1.20;;;25.70;60.20;;;;;;4843218;29;20048;-87
2022/08/26 12:29:01;;;;;;;6.53;1.33;;;25.90;59.30;;;;;;4830938;29;20037;-91
2022/08/26 12:31:30;;;;;;;4.50;1.38;;;26.30;59.00;;;;;;4827946;29;20026;-91
2022/08/26 12:33:58;;;;;;;3.95;1.17;;;26.60;58.50;;;;;;4826079;29;20033;-90
2022/08/26 12:36:33;;;;;;;4.45;1.35;;;26.70;57.60;;;;;;4827773;29;20128;-90
2022/08/26 12:39:11;;;;;;;5.28;0.90;;;26.50;57.50;;;;;;4827912;29;20054;-89
2022/08/26 12:41:41;;;;;;;4.88;0.73;;;26.20;57.50;;;;;;4826774;29;20034;-91
2022/08/26 12:44:08;;;;;;;6.93;1.05;;;26.10;57.70;;;;;;4827612;29;20044;-90
2022/08/26 12:46:34;;;;;;;6.53;1.17;;;26.00;57.80;;;;;;4828130;29;20037;-90
2022/08/26 12:49:02;;;;;;;10.40;2.28;;;25.90;58.00;;;;;;4827800;29;20094;-91
2022/08/26 12:51:31;;;;;;;7.72;1.50;;;25.70;58.20;;;;;;4827828;29;20037;-90
2022/08/26 12:53:58;;;;;;;3.08;1.00;;;25.60;58.40;;;;;;4827901;29;20045;-91
2022/08/26 12:56:31;;;;;;;5.38;1.20;;;25.30;58.50;;;;;;4826714;29;20041;-88
2022/08/26 12:59:04;;;;;;;4.32;0.80;;;25.20;58.80;;;;;;4826764;29;20061;-87
2022/08/26 13:01:42;;;;;;;6.35;1.02;;;25.20;59.00;;;;;;4842128;29;20046;-89
2022/08/26 13:04:38;;;;;;;3.35;1.10;;;25.10;58.90;;;;;;4827520;29;20042;-89
2022/08/26 13:07:13;;;;;;;4.20;0.98;;;25.10;59.20;;;;;;4832040;29;20132;-89
2022/08/26 13:09:40;;;;;;;5.78;1.30;;;25.10;59.10;;;;;;4844240;29;20034;-89
2022/08/26 13:12:06;;;;;;;5.43;1.00;;;25.10;59.40;;;;;;4827176;29;20033;-90
2022/08/26 13:14:31;;;;;;;4.13;1.25;;;25.20;59.50;;;;;;4829105;29;20098;-89